Greeneville Municipal (3B1)
Greeneville, ME
Field Elevation: 1401
Lat: 45°27.80N  Long: 69°33.10W
CTAF/Unicom Freq: 122.8000
   
     For Weather-by-Phone, call (207) 695-2581
Weather Advisories
2021-01-17   22:34 Z
Altimeter 29.21" Hg
Wind 330° @ 13 KT
Gusts 26 KT
Visibility 10 SM
Ceiling OVC026
Temperature -2° C (28° F)
Dewpoint -6° C (21° F)
Relative Humidity 75%
Density Altitude --
Condensation Altitude 3,300 feet
Wind Chill: -8° C (18° F)
Wind and Runways
Indicated Runway = 32
Headwind = 13 kt
Crosswind = 2 kt
History
 
 
 
More Info
NOAA Forecast
 
 
About Us
Belfort Instrument
 
 
FAA Disclaimer: The data displayed is for advisory purposes only and is not to be used for flight planning or operations. For official data, please call (207) 695-2581 to hear the current automated AWOS voice message.
  METAR 3B1 172234Z AUTO 33013G26KT 10 SM OVC026 M02/M06 A2921